Time;durP1;ratioP1;P1;durP2;ratioP2;P2;SDS_P1;SDS_P2;PMS_P1;PMS_P2;Temp;Humidity;BMP_temperature;BMP_pressure;BME280_temperature;BME280_humidity;BME280_pressure;Samples;Min_cycle;Max_cycle;Signal;HPM_P1;HPM_P2
2021/06/08 00:01:20;;;;;;;12.50;7.90;;;17.10;99.90;;;;;;5053943;28;20017;-78
2021/06/08 00:03:46;;;;;;;13.07;7.93;;;17.10;99.90;;;;;;5055359;28;20162;-80
2021/06/08 00:06:11;;;;;;;12.43;8.07;;;17.10;99.90;;;;;;5054401;28;20617;-78
2021/06/08 00:08:37;;;;;;;13.05;8.82;;;17.10;99.90;;;;;;5055664;28;20048;-80
2021/06/08 00:11:03;;;;;;;12.55;8.43;;;17.00;99.90;;;;;;5055655;28;20028;-80
2021/06/08 00:13:29;;;;;;;12.83;9.47;;;17.00;99.90;;;;;;5056769;28;20400;-79
2021/06/08 00:15:54;;;;;;;14.70;8.80;;;17.00;99.90;;;;;;5056226;28;20271;-79
2021/06/08 00:18:20;;;;;;;10.02;7.82;;;17.10;99.90;;;;;;5054768;28;20028;-79
2021/06/08 00:20:45;;;;;;;12.70;8.55;;;17.00;99.90;;;;;;5054015;28;20527;-79
2021/06/08 00:23:11;;;;;;;12.23;8.70;;;17.00;99.90;;;;;;5056023;28;20033;-80
2021/06/08 00:25:38;;;;;;;14.80;10.10;;;16.90;99.90;;;;;;5056044;28;20036;-79
2021/06/08 00:28:04;;;;;;;10.98;8.35;;;16.80;99.90;;;;;;5055113;28;20035;-80
2021/06/08 00:30:30;;;;;;;12.15;8.75;;;16.80;99.90;;;;;;5054770;28;20083;-79
2021/06/08 00:32:56;;;;;;;14.93;9.35;;;16.70;99.90;;;;;;5057133;28;20028;-79
2021/06/08 00:35:22;;;;;;;14.45;9.07;;;16.70;99.90;;;;;;5056177;28;20052;-79
2021/06/08 00:37:48;;;;;;;15.35;9.07;;;16.80;99.90;;;;;;5054760;28;20056;-79
2021/06/08 00:40:14;;;;;;;12.25;9.07;;;16.80;99.90;;;;;;5052996;28;20067;-79
2021/06/08 00:42:39;;;;;;;16.05;8.80;;;16.80;99.90;;;;;;5056628;28;20017;-80
2021/06/08 00:45:07;;;;;;;12.90;8.63;;;16.80;99.90;;;;;;5056109;28;20021;-80
2021/06/08 00:47:33;;;;;;;15.32;9.40;;;16.80;99.90;;;;;;5056773;28;20033;-79
2021/06/08 00:49:59;;;;;;;18.35;9.57;;;17.00;99.90;;;;;;5054596;28;20082;-79
2021/06/08 00:52:25;;;;;;;14.05;10.23;;;17.00;99.90;;;;;;5054798;28;20400;-80
2021/06/08 00:54:50;;;;;;;15.30;9.98;;;16.90;99.90;;;;;;5057154;28;20032;-80
2021/06/08 00:57:17;;;;;;;13.65;8.82;;;16.80;99.90;;;;;;5057310;28;20530;-80
2021/06/08 00:59:42;;;;;;;12.33;9.83;;;16.80;99.90;;;;;;5057319;28;20049;-80
2021/06/08 01:02:08;;;;;;;12.95;9.35;;;16.80;99.90;;;;;;5055958;28;20025;-79
2021/06/08 01:04:33;;;;;;;15.95;9.65;;;16.80;99.90;;;;;;5055087;28;20031;-79
2021/06/08 01:06:59;;;;;;;13.25;9.30;;;16.80;99.90;;;;;;5056579;28;20024;-79
2021/06/08 01:09:24;;;;;;;14.93;9.70;;;16.80;99.90;;;;;;5057153;28;20124;-79
2021/06/08 01:11:50;;;;;;;13.02;9.00;;;16.80;99.90;;;;;;5054957;28;20467;-80
2021/06/08 01:14:16;;;;;;;12.07;8.30;;;16.80;99.90;;;;;;5053598;28;20025;-78
2021/06/08 01:16:41;;;;;;;16.85;10.73;;;16.70;99.90;;;;;;5052890;28;20025;-78
2021/06/08 01:19:07;;;;;;;14.73;10.43;;;16.70;99.90;;;;;;5052317;28;20032;-78
2021/06/08 01:21:34;;;;;;;11.85;9.00;;;16.70;99.90;;;;;;5051407;28;20112;-79
2021/06/08 01:24:02;;;;;;;13.40;9.68;;;16.70;99.90;;;;;;5053088;28;20021;-78
2021/06/08 01:26:29;;;;;;;11.98;8.88;;;16.70;99.90;;;;;;5050994;28;20137;-78
2021/06/08 01:28:58;;;;;;;;;;;16.70;99.90;;;;;;5052432;28;20052;-80
2021/06/08 01:31:26;;;;;;;13.82;9.77;;;16.70;99.90;;;;;;5054445;28;19915;-79
2021/06/08 01:33:53;;;;;;;13.95;9.77;;;16.70;99.90;;;;;;5053534;28;20056;-79
2021/06/08 01:36:20;;;;;;;13.43;9.60;;;16.70;99.90;;;;;;5054571;28;20040;-78
2021/06/08 01:38:49;;;;;;;15.73;9.45;;;16.70;99.90;;;;;;5057766;28;20154;-79
2021/06/08 01:41:18;;;;;;;15.98;9.85;;;16.70;99.90;;;;;;5058723;28;20124;-79
2021/06/08 01:43:45;;;;;;;15.82;9.82;;;16.70;99.90;;;;;;5057035;28;20059;-78
2021/06/08 01:46:11;;;;;;;16.05;10.57;;;16.70;99.90;;;;;;5057413;28;20025;-79
2021/06/08 01:48:37;;;;;;;15.25;10.02;;;16.70;99.90;;;;;;5057334;28;20040;-77
2021/06/08 01:51:39;;;;;;;15.05;10.93;;;16.60;99.90;;;;;;5056278;28;20044;-79
2021/06/08 01:54:16;;;;;;;17.05;9.93;;;16.70;99.90;;;;;;5058442;28;20048;-78
2021/06/08 01:56:45;;;;;;;18.80;11.35;;;16.60;99.90;;;;;;5057058;28;20487;-79
2021/06/08 01:59:32;;;;;;;14.25;10.60;;;16.60;99.90;;;;;;5056645;28;20029;-77
2021/06/08 02:02:11;;;;;;;17.00;10.88;;;16.60;99.90;;;;;;5056974;28;20024;-79
2021/06/08 02:04:52;;;;;;;19.38;10.60;;;16.70;99.90;;;;;;5058623;28;20032;-80
2021/06/08 02:07:42;;;;;;;18.52;11.25;;;16.70;99.90;;;;;;5058718;28;20059;-79
2021/06/08 02:10:35;;;;;;;17.35;10.70;;;16.60;99.90;;;;;;5058721;28;20028;-78
2021/06/08 02:13:12;;;;;;;16.60;11.20;;;16.60;99.90;;;;;;5057970;28;20025;-77
2021/06/08 02:15:48;;;;;;;16.75;11.30;;;16.60;99.90;;;;;;5055328;28;20035;-78
2021/06/08 02:18:16;;;;;;;16.23;11.60;;;16.60;99.90;;;;;;5056530;28;20112;-78
2021/06/08 02:20:42;;;;;;;22.65;13.13;;;16.70;99.90;;;;;;5056668;28;20032;-79
2021/06/08 02:23:11;;;;;;;17.20;11.38;;;16.60;99.90;;;;;;5058827;28;20507;-78
2021/06/08 02:25:38;;;;;;;16.45;10.85;;;16.60;99.90;;;;;;5056532;28;20049;-78
2021/06/08 02:28:10;;;;;;;16.10;11.77;;;16.60;99.90;;;;;;5056957;28;20472;-78
2021/06/08 02:30:38;;;;;;;15.48;11.18;;;16.60;99.90;;;;;;5058020;28;20096;-78
2021/06/08 02:33:05;;;;;;;17.80;12.35;;;16.50;99.90;;;;;;5057795;28;20025;-78
2021/06/08 02:35:31;;;;;;;;;;;16.50;99.90;;;;;;5055696;28;20032;-78
2021/06/08 02:37:58;;;;;;;18.33;11.30;;;16.50;99.90;;;;;;5056845;28;19916;-78
2021/06/08 02:40:24;;;;;;;;;;;16.50;99.90;;;;;;5057622;28;20392;-78
2021/06/08 02:42:50;;;;;;;18.27;12.03;;;16.50;99.90;;;;;;5058113;28;19905;-79
2021/06/08 02:45:16;;;;;;;20.65;12.90;;;16.50;99.90;;;;;;5057072;28;20025;-79
2021/06/08 02:47:43;;;;;;;20.35;13.07;;;16.50;99.90;;;;;;5056223;28;20542;-79
2021/06/08 02:50:11;;;;;;;18.85;12.65;;;16.40;99.90;;;;;;5056287;28;20051;-80
2021/06/08 02:52:37;;;;;;;16.63;12.18;;;16.30;99.90;;;;;;5055776;28;20029;-78
2021/06/08 02:55:04;;;;;;;21.50;12.77;;;16.30;99.90;;;;;;5054408;28;20472;-78
2021/06/08 02:57:32;;;;;;;18.60;12.35;;;16.40;99.90;;;;;;5056274;28;20024;-77
2021/06/08 03:00:02;;;;;;;16.77;11.70;;;16.30;99.90;;;;;;5054631;28;20384;-77
2021/06/08 03:02:30;;;;;;;16.95;12.50;;;16.20;99.90;;;;;;5056757;28;20487;-77
2021/06/08 03:05:02;;;;;;;20.27;13.85;;;16.20;99.90;;;;;;5058509;28;20479;-77
2021/06/08 03:07:28;;;;;;;18.20;12.45;;;16.20;99.90;;;;;;5057462;28;20033;-78
2021/06/08 03:10:00;;;;;;;16.38;11.38;;;16.20;99.90;;;;;;5055882;28;20028;-78
2021/06/08 03:12:31;;;;;;;21.92;12.27;;;16.20;99.90;;;;;;5056342;28;20079;-78
2021/06/08 03:14:58;;;;;;;18.85;12.63;;;16.10;99.90;;;;;;5057990;28;20021;-78
2021/06/08 03:17:26;;;;;;;19.33;12.10;;;16.10;99.90;;;;;;5056518;28;20043;-77
2021/06/08 03:19:55;;;;;;;19.48;13.20;;;16.10;99.90;;;;;;5056517;28;20079;-78
2021/06/08 03:22:22;;;;;;;17.77;12.13;;;16.10;99.90;;;;;;5056459;28;20029;-78
2021/06/08 03:24:53;;;;;;;21.80;13.85;;;16.10;99.90;;;;;;5058735;28;20021;-79
2021/06/08 03:27:20;;;;;;;20.48;12.63;;;16.10;99.90;;;;;;5055887;28;20037;-77
2021/06/08 03:29:46;;;;;;;;;;;16.10;99.90;;;;;;5054864;28;20025;-77
2021/06/08 03:32:13;;;;;;;19.30;13.10;;;16.10;99.90;;;;;;5055851;28;19908;-78
2021/06/08 03:34:39;;;;;;;19.52;13.02;;;16.10;99.90;;;;;;5056310;28;20033;-78
2021/06/08 03:37:06;;;;;;;22.53;13.10;;;16.10;99.90;;;;;;5055286;28;20167;-77
2021/06/08 03:39:34;;;;;;;20.30;13.35;;;16.20;99.90;;;;;;5056315;28;20465;-79
2021/06/08 03:42:01;;;;;;;21.70;13.70;;;16.20;99.90;;;;;;5058886;28;20047;-78
2021/06/08 03:44:27;;;;;;;19.05;12.65;;;16.20;99.90;;;;;;5056954;28;20021;-79
2021/06/08 03:46:54;;;;;;;17.42;12.35;;;16.30;99.90;;;;;;5058737;28;20060;-77
2021/06/08 03:49:21;;;;;;;21.98;12.55;;;16.30;99.90;;;;;;5058394;28;20025;-78
2021/06/08 03:51:52;;;;;;;18.20;11.90;;;16.30;99.90;;;;;;5038496;28;20522;-78
2021/06/08 03:54:18;;;;;;;21.48;13.02;;;16.30;99.90;;;;;;5036409;28;20392;-78
2021/06/08 03:56:48;;;;;;;18.77;12.35;;;16.40;99.90;;;;;;5037696;28;20036;-78
2021/06/08 03:59:15;;;;;;;18.95;13.05;;;16.40;99.90;;;;;;5036983;28;20029;-79
2021/06/08 04:01:42;;;;;;;17.88;12.60;;;16.40;99.90;;;;;;5038524;28;20026;-79
2021/06/08 04:04:08;;;;;;;17.83;12.05;;;16.40;99.90;;;;;;5037693;28;20540;-79
2021/06/08 04:06:34;;;;;;;19.35;11.75;;;16.50;99.90;;;;;;5040042;28;20040;-79
2021/06/08 04:09:05;;;;;;;17.03;12.33;;;16.50;99.90;;;;;;5045127;28;20090;-78
2021/06/08 04:11:30;;;;;;;18.10;12.55;;;16.60;99.90;;;;;;5046050;28;20547;-79
2021/06/08 04:13:56;;;;;;;20.30;12.95;;;16.60;99.90;;;;;;5047298;28;20060;-79
2021/06/08 04:16:23;;;;;;;16.60;12.02;;;16.70;99.90;;;;;;5048440;28;20107;-79
2021/06/08 04:18:49;;;;;;;22.05;14.52;;;16.70;99.90;;;;;;5038665;28;20025;-79
2021/06/08 04:21:15;;;;;;;21.92;12.57;;;16.80;99.90;;;;;;5036074;28;20496;-77
2021/06/08 04:23:41;;;;;;;16.33;12.23;;;16.70;99.90;;;;;;5035560;28;20030;-77
2021/06/08 04:26:07;;;;;;;16.85;11.95;;;16.70;99.90;;;;;;5038380;28;20033;-79
2021/06/08 04:28:32;;;;;;;17.88;11.48;;;16.80;99.90;;;;;;5038708;28;20499;-79
2021/06/08 04:30:58;;;;;;;19.02;10.90;;;16.90;99.90;;;;;;5038574;28;20052;-78
2021/06/08 04:33:29;;;;;;;17.63;11.15;;;16.90;99.90;;;;;;5034416;28;20029;-77
2021/06/08 04:35:55;;;;;;;17.83;11.68;;;16.90;99.90;;;;;;5036661;28;20061;-77
2021/06/08 04:38:22;;;;;;;15.95;11.27;;;16.90;99.90;;;;;;5036336;28;20049;-77
2021/06/08 04:40:50;;;;;;;14.25;10.70;;;17.00;99.90;;;;;;5036658;28;20048;-77
2021/06/08 04:43:24;;;;;;;14.52;10.77;;;16.90;99.90;;;;;;5032975;28;20018;-78
2021/06/08 04:45:51;;;;;;;21.38;11.27;;;16.90;99.90;;;;;;5053162;28;20017;-78
2021/06/08 04:48:20;;;;;;;18.08;10.35;;;17.00;99.90;;;;;;5051726;28;20384;-78
2021/06/08 04:50:46;;;;;;;15.45;11.23;;;16.90;99.90;;;;;;5052250;28;20033;-77
2021/06/08 04:53:11;;;;;;;17.58;11.40;;;17.10;99.90;;;;;;5054712;28;20040;-78
2021/06/08 04:55:37;;;;;;;12.48;9.57;;;17.10;99.90;;;;;;5053300;28;20029;-77
2021/06/08 04:58:03;;;;;;;15.27;10.52;;;17.10;99.90;;;;;;5054093;28;20051;-78
2021/06/08 05:00:37;;;;;;;14.70;10.30;;;17.30;99.90;;;;;;5051383;28;20080;-79
2021/06/08 05:03:10;;;;;;;13.02;9.90;;;17.30;99.90;;;;;;5035332;28;20079;-77
2021/06/08 05:05:41;;;;;;;18.25;9.80;;;17.50;99.90;;;;;;5034425;28;20477;-77
2021/06/08 05:08:13;;;;;;;18.73;11.43;;;17.50;99.90;;;;;;5035125;28;20022;-78
2021/06/08 05:10:52;;;;;;;14.10;10.25;;;17.70;99.90;;;;;;5038910;28;20033;-79
2021/06/08 05:13:19;;;;;;;16.40;9.43;;;17.60;99.90;;;;;;5038443;28;20392;-77
2021/06/08 05:15:45;;;;;;;;;;;17.60;99.90;;;;;;5040600;28;20029;-78
2021/06/08 05:18:14;;;;;;;14.27;9.27;;;17.60;99.90;;;;;;5038567;28;19917;-78
2021/06/08 05:20:43;;;;;;;12.85;9.88;;;17.60;99.90;;;;;;5043489;28;20272;-77
2021/06/08 05:23:09;;;;;;;16.98;10.02;;;17.70;99.90;;;;;;5050018;28;20013;-79
2021/06/08 05:25:37;;;;;;;13.63;9.63;;;17.80;99.90;;;;;;5057453;28;20052;-79
2021/06/08 05:28:04;;;;;;;13.05;9.05;;;17.90;99.90;;;;;;5059654;28;20301;-77
2021/06/08 05:30:30;;;;;;;14.15;9.57;;;17.70;99.90;;;;;;5055983;28;20074;-78
2021/06/08 05:32:55;;;;;;;13.65;9.25;;;17.70;99.90;;;;;;5058656;28;20033;-77
2021/06/08 05:35:26;;;;;;;12.45;9.18;;;17.60;99.90;;;;;;5056893;28;20032;-77
2021/06/08 05:37:52;;;;;;;14.60;9.98;;;17.60;99.90;;;;;;5059482;28;20438;-77
2021/06/08 05:40:19;;;;;;;11.80;8.57;;;17.60;99.90;;;;;;5058485;28;20029;-78
2021/06/08 05:42:47;;;;;;;16.70;9.68;;;17.70;99.90;;;;;;5058025;28;20021;-77
2021/06/08 05:45:13;;;;;;;11.43;8.82;;;17.60;99.90;;;;;;5057556;28;20503;-78
2021/06/08 05:47:40;;;;;;;12.70;9.35;;;17.50;99.90;;;;;;5058037;28;20080;-78
2021/06/08 05:50:06;;;;;;;13.57;9.63;;;17.60;99.90;;;;;;5057357;28;20029;-77
2021/06/08 05:52:32;;;;;;;12.40;8.90;;;17.70;99.90;;;;;;5058844;28;20094;-79
2021/06/08 05:54:59;;;;;;;13.40;9.43;;;17.90;99.90;;;;;;5056539;28;20025;-77
2021/06/08 05:57:24;;;;;;;;;;;17.90;99.90;;;;;;5056966;28;20021;-77
2021/06/08 05:59:50;;;;;;;19.67;9.90;;;18.20;99.90;;;;;;5055816;28;19905;-79
2021/06/08 06:02:16;;;;;;;12.52;9.35;;;18.50;99.90;;;;;;5057159;28;20021;-78
2021/06/08 06:04:44;;;;;;;15.18;9.43;;;18.70;99.90;;;;;;5055883;28;20254;-78
2021/06/08 06:07:10;;;;;;;13.07;9.10;;;19.00;99.90;;;;;;5054817;28;20036;-76
2021/06/08 06:09:37;;;;;;;16.95;11.02;;;19.20;99.90;;;;;;5054540;28;20668;-78
2021/06/08 06:12:05;;;;;;;16.60;10.83;;;19.20;99.90;;;;;;5057227;28;20040;-77
2021/06/08 06:14:33;;;;;;;19.75;11.13;;;19.20;99.90;;;;;;5056350;28;20639;-76
2021/06/08 06:16:59;;;;;;;16.45;10.30;;;19.50;99.90;;;;;;5057047;28;20425;-77
2021/06/08 06:19:25;;;;;;;14.75;10.00;;;19.40;99.90;;;;;;5056002;28;20031;-78
2021/06/08 06:21:55;;;;;;;14.73;10.07;;;19.40;99.90;;;;;;5056249;28;20100;-77
2021/06/08 06:24:22;;;;;;;17.73;9.75;;;19.30;99.90;;;;;;5055461;28;20075;-76
2021/06/08 06:26:48;;;;;;;15.30;10.43;;;19.40;99.90;;;;;;5056615;28;20025;-78
2021/06/08 06:29:14;;;;;;;14.07;9.48;;;19.50;99.90;;;;;;5055127;28;20021;-75
2021/06/08 06:31:45;;;;;;;12.70;9.30;;;19.70;99.90;;;;;;5056236;28;20025;-83
2021/06/08 06:34:12;;;;;;;12.35;9.70;;;19.80;99.90;;;;;;5056471;28;20277;-77
2021/06/08 06:36:39;;;;;;;11.65;8.90;;;19.80;99.90;;;;;;5054219;28;20044;-80
2021/06/08 06:39:09;;;;;;;14.80;9.82;;;20.00;99.90;;;;;;5054875;28;20135;-78
2021/06/08 06:41:43;;;;;;;14.98;9.10;;;19.90;99.90;;;;;;5048868;28;20022;-78
2021/06/08 06:44:09;;;;;;;13.48;9.43;;;19.80;99.90;;;;;;5052204;28;20454;-77
2021/06/08 06:46:35;;;;;;;11.27;8.57;;;19.90;99.90;;;;;;5053624;28;20044;-78
2021/06/08 06:49:01;;;;;;;12.73;8.70;;;20.00;99.90;;;;;;5054700;28;20476;-80
2021/06/08 06:51:27;;;;;;;12.63;8.70;;;20.00;99.90;;;;;;5053676;28;20032;-78
2021/06/08 06:53:55;;;;;;;11.70;8.40;;;20.20;99.90;;;;;;5055512;28;20468;-78
2021/06/08 06:56:22;;;;;;;11.85;8.85;;;20.30;99.90;;;;;;5055279;28;20400;-76
2021/06/08 06:58:51;;;;;;;15.25;9.88;;;20.50;99.90;;;;;;5053981;28;20093;-80
2021/06/08 07:01:22;;;;;;;11.60;8.65;;;20.30;99.90;;;;;;5034623;28;20021;-78
2021/06/08 07:03:51;;;;;;;18.92;9.50;;;20.40;99.90;;;;;;5033995;28;20018;-77
2021/06/08 07:06:18;;;;;;;12.65;8.95;;;20.40;99.90;;;;;;5033940;28;20388;-77
2021/06/08 07:08:48;;;;;;;;;;;20.30;99.90;;;;;;5036214;28;20473;-80
2021/06/08 07:11:14;;;;;;;15.65;8.05;;;20.50;99.90;;;;;;5052953;28;19948;-80
2021/06/08 07:13:39;;;;;;;16.35;8.95;;;20.70;99.90;;;;;;5040040;28;20033;-79
2021/06/08 07:16:05;;;;;;;11.60;8.13;;;20.90;99.90;;;;;;5035838;28;20029;-78
2021/06/08 07:18:31;;;;;;;11.93;8.48;;;21.40;99.90;;;;;;5036560;28;20043;-79
2021/06/08 07:21:00;;;;;;;14.05;7.50;;;21.90;99.90;;;;;;5035140;28;20072;-79
2021/06/08 07:23:27;;;;;;;9.93;7.90;;;22.60;99.90;;;;;;5036913;28;20014;-77
2021/06/08 07:25:53;;;;;;;11.43;8.07;;;23.40;99.90;;;;;;5035768;28;20618;-79
2021/06/08 07:28:20;;;;;;;11.63;7.97;;;23.20;99.90;;;;;;5034922;28;20064;-76
2021/06/08 07:30:46;;;;;;;;;;;23.10;99.90;;;;;;5036298;28;20029;-78
2021/06/08 07:33:28;;;;;;;8.73;6.63;;;23.50;99.90;;;;;;5036881;28;19909;-79
2021/06/08 07:36:08;;;;;;;7.97;6.55;;;23.90;99.90;;;;;;5035668;28;20044;-79
2021/06/08 07:38:57;;;;;;;11.73;7.57;;;24.00;99.90;;;;;;5053614;28;20029;-79
2021/06/08 07:41:32;;;;;;;9.18;7.10;;;23.90;99.90;;;;;;5055162;28;20023;-78
2021/06/08 07:44:03;;;;;;;9.50;7.03;;;23.90;99.90;;;;;;5055256;28;20082;-79
2021/06/08 07:46:30;;;;;;;10.70;6.57;;;24.30;99.90;;;;;;5051386;28;20480;-77
2021/06/08 07:48:57;;;;;;;10.15;7.40;;;25.40;99.90;;;;;;5054498;28;20032;-79
2021/06/08 07:51:25;;;;;;;12.15;7.78;;;26.10;99.90;;;;;;5054922;28;20029;-76
2021/06/08 07:53:51;;;;;;;8.70;6.50;;;26.00;99.90;;;;;;5054918;28;20052;-77
2021/06/08 07:56:18;;;;;;;10.20;6.88;;;24.90;99.90;;;;;;5054456;28;20025;-78
2021/06/08 07:58:43;;;;;;;11.13;6.70;;;24.80;99.90;;;;;;5054121;28;20067;-79
2021/06/08 08:01:10;;;;;;;9.17;7.23;;;25.20;99.90;;;;;;5052575;28;20029;-77
2021/06/08 08:03:38;;;;;;;9.30;7.38;;;25.30;99.90;;;;;;5052285;28;20024;-79
2021/06/08 08:06:10;;;;;;;10.45;7.05;;;25.00;99.90;;;;;;5052940;28;20029;-79
2021/06/08 08:08:35;;;;;;;10.80;7.47;;;24.90;99.90;;;;;;5053091;28;20048;-78
2021/06/08 08:11:14;;;;;;;9.27;7.43;;;25.20;99.90;;;;;;5054205;28;20017;-78
2021/06/08 08:13:41;;;;;;;8.93;7.28;;;24.80;99.90;;;;;;5054518;28;20025;-77
2021/06/08 08:16:07;;;;;;;11.38;7.40;;;24.80;99.90;;;;;;5052671;28;20032;-78
2021/06/08 08:18:34;;;;;;;;;;;24.50;99.90;;;;;;5052387;28;20028;-78
2021/06/08 08:20:59;;;;;;;8.43;7.10;;;24.40;99.90;;;;;;5054216;28;20644;-77
2021/06/08 08:23:28;;;;;;;10.77;7.53;;;24.50;99.90;;;;;;5053371;28;20234;-78
2021/06/08 08:25:59;;;;;;;10.88;8.40;;;24.40;99.90;;;;;;5052044;28;20533;-78
2021/06/08 08:28:25;;;;;;;10.57;8.25;;;24.30;99.90;;;;;;5052184;28;20379;-79
2021/06/08 08:30:52;;;;;;;13.70;7.65;;;23.90;99.90;;;;;;5052483;28;20024;-78
2021/06/08 08:33:18;;;;;;;;;;;24.60;99.90;;;;;;5050816;28;20024;-78
2021/06/08 08:35:44;;;;;;;13.65;8.15;;;25.10;99.90;;;;;;5047122;28;20288;-78
2021/06/08 08:38:11;;;;;;;9.10;7.17;;;25.60;99.90;;;;;;5033622;28;20041;-78
2021/06/08 08:40:36;;;;;;;;;;;25.30;99.90;;;;;;5031728;28;20502;-77
2021/06/08 08:43:02;;;;;;;11.47;8.70;;;25.70;99.90;;;;;;5033679;28;19916;-78
2021/06/08 08:45:30;;;;;;;12.02;7.43;;;26.50;99.90;;;;;;5033223;28;20495;-78
2021/06/08 08:47:56;;;;;;;12.80;8.27;;;26.10;99.90;;;;;;5031559;28;20029;-77
2021/06/08 08:50:22;;;;;;;11.55;7.85;;;26.60;99.90;;;;;;5032339;28;20057;-77
2021/06/08 08:52:56;;;;;;;12.43;8.40;;;27.40;99.90;;;;;;5032067;28;20563;-80
2021/06/08 08:55:27;;;;;;;9.80;7.47;;;27.80;99.90;;;;;;5031413;28;20033;-78
2021/06/08 08:57:55;;;;;;;12.35;7.78;;;28.30;99.90;;;;;;5033859;28;20033;-79
2021/06/08 09:00:22;;;;;;;7.30;6.22;;;29.20;99.90;;;;;;5032621;28;20144;-79
2021/06/08 09:02:49;;;;;;;10.23;7.38;;;30.60;99.90;;;;;;5033959;28;20397;-78
2021/06/08 09:05:15;;;;;;;10.45;8.13;;;30.30;99.90;;;;;;5034130;28;20029;-80
2021/06/08 09:07:41;;;;;;;9.60;7.20;;;30.00;99.90;;;;;;5032041;28;20025;-78
2021/06/08 09:10:09;;;;;;;9.63;6.93;;;29.80;99.90;;;;;;5033379;28;20029;-80
2021/06/08 09:12:36;;;;;;;12.55;7.82;;;29.50;99.90;;;;;;5034269;28;20021;-78
2021/06/08 09:15:03;;;;;;;8.50;6.07;;;30.70;99.90;;;;;;5034090;28;20018;-80
2021/06/08 09:17:30;;;;;;;9.98;7.30;;;31.00;99.90;;;;;;5033090;28;20021;-79
2021/06/08 09:19:56;;;;;;;9.77;8.02;;;29.70;99.90;;;;;;5033609;28;20020;-78
2021/06/08 09:22:22;;;;;;;11.55;7.38;;;28.70;99.90;;;;;;5033897;28;20022;-78
2021/06/08 09:24:54;;;;;;;11.00;7.97;;;29.00;99.90;;;;;;5033104;28;20037;-78
2021/06/08 09:27:28;;;;;;;8.20;6.57;;;28.90;99.90;;;;;;5033444;28;20272;-80
2021/06/08 09:29:54;;;;;;;9.88;7.53;;;28.60;99.90;;;;;;5031849;28;20018;-78
2021/06/08 09:32:28;;;;;;;10.75;8.70;;;27.70;99.90;;;;;;5030971;28;20017;-79
2021/06/08 09:35:01;;;;;;;11.43;8.40;;;27.60;99.90;;;;;;5032154;28;20050;-78
2021/06/08 09:37:41;;;;;;;11.48;9.60;;;27.10;99.90;;;;;;5030968;28;20026;-80
2021/06/08 09:40:22;;;;;;;12.80;8.95;;;26.00;99.90;;;;;;5030041;28;20030;-77
2021/06/08 09:42:49;;;;;;;12.60;9.13;;;26.10;99.90;;;;;;5031882;28;20404;-79
2021/06/08 09:45:22;;;;;;;11.90;9.15;;;25.60;99.90;;;;;;5033946;28;20053;-78
2021/06/08 09:48:01;;;;;;;12.98;9.18;;;25.60;99.90;;;;;;5033463;28;20032;-79
2021/06/08 09:50:32;;;;;;;14.80;10.18;;;25.50;99.90;;;;;;5032340;28;20026;-79
2021/06/08 09:53:33;;;;;;;19.10;10.13;;;25.00;99.90;;;;;;5042328;28;20120;-79
2021/06/08 09:56:06;;;;;;;15.60;10.15;;;24.90;99.90;;;;;;5040793;28;20526;-78
2021/06/08 09:58:34;;;;;;;12.52;9.35;;;24.70;99.90;;;;;;5043174;28;20488;-76
2021/06/08 10:01:15;;;;;;;12.63;9.70;;;24.70;99.90;;;;;;5049160;28;20491;-79
2021/06/08 10:03:52;;;;;;;16.15;10.15;;;24.90;99.90;;;;;;5048475;28;20314;-77
2021/06/08 10:06:33;;;;;;;14.18;10.75;;;25.20;99.90;;;;;;5048735;28;20020;-79
2021/06/08 10:09:02;;;;;;;14.07;9.63;;;24.70;99.90;;;;;;5048361;28;20105;-78
2021/06/08 10:11:34;;;;;;;14.10;9.20;;;24.60;99.90;;;;;;5047287;28;20025;-78
2021/06/08 10:14:14;;;;;;;12.30;9.15;;;24.60;99.90;;;;;;5044892;28;20024;-79
2021/06/08 10:16:40;;;;;;;12.38;9.38;;;24.30;99.90;;;;;;5046875;28;20024;-77
2021/06/08 10:19:07;;;;;;;14.73;9.10;;;24.20;99.90;;;;;;5054647;28;20033;-78
2021/06/08 10:21:37;;;;;;;12.63;9.05;;;24.40;99.90;;;;;;5055041;28;20491;-78
2021/06/08 10:24:08;;;;;;;13.48;10.32;;;24.20;99.90;;;;;;5055121;28;20032;-78
2021/06/08 10:26:35;;;;;;;12.15;9.40;;;24.30;99.90;;;;;;5056043;28;20397;-77
2021/06/08 10:29:04;;;;;;;13.07;9.23;;;24.10;99.90;;;;;;5047170;28;20025;-79
2021/06/08 10:31:31;;;;;;;12.70;8.93;;;24.20;99.90;;;;;;5045211;28;20036;-78
2021/06/08 10:33:57;;;;;;;12.20;9.13;;;24.20;99.90;;;;;;5046514;28;20496;-77
2021/06/08 10:36:26;;;;;;;17.70;9.90;;;24.40;99.90;;;;;;5047758;28;20041;-79
2021/06/08 10:38:52;;;;;;;15.88;11.50;;;24.40;99.90;;;;;;5044188;28;20349;-78
2021/06/08 10:41:18;;;;;;;17.00;10.83;;;24.30;99.90;;;;;;5044914;28;20017;-78
2021/06/08 10:43:43;;;;;;;12.37;8.90;;;24.10;99.90;;;;;;5047731;28;20025;-78
2021/06/08 10:46:22;;;;;;;15.80;9.63;;;24.30;99.90;;;;;;5045797;28;20021;-80
2021/06/08 10:48:50;;;;;;;15.90;10.15;;;24.20;99.90;;;;;;5045494;28;20025;-77
2021/06/08 10:51:22;;;;;;;15.38;10.70;;;23.90;99.90;;;;;;5037219;28;20702;-78
2021/06/08 10:53:57;;;;;;;13.48;10.85;;;23.80;99.90;;;;;;5037289;28;20129;-78
2021/06/08 10:56:35;;;;;;;16.07;10.73;;;24.00;99.90;;;;;;5036385;28;20477;-79
2021/06/08 10:59:05;;;;;;;13.27;9.15;;;23.70;99.90;;;;;;5057657;28;20036;-79
2021/06/08 11:01:35;;;;;;;18.10;9.73;;;23.90;99.90;;;;;;5044123;28;20024;-79
2021/06/08 11:04:28;;;;;;;14.88;10.10;;;24.20;99.90;;;;;;5044983;28;20026;-78
2021/06/08 11:07:03;;;;;;;16.30;9.85;;;24.60;99.90;;;;;;5045773;28;20088;-80
2021/06/08 11:09:32;;;;;;;13.07;9.10;;;24.20;99.90;;;;;;5045122;28;20032;-80
2021/06/08 11:12:09;;;;;;;13.32;9.50;;;24.50;99.90;;;;;;5042496;28;20030;-79
2021/06/08 11:14:41;;;;;;;15.80;9.98;;;24.50;99.90;;;;;;5035495;28;20026;-79
2021/06/08 11:17:08;;;;;;;13.43;8.45;;;24.50;99.90;;;;;;5034684;28;20033;-76
2021/06/08 11:19:50;;;;;;;12.88;9.90;;;25.10;99.90;;;;;;5035320;28;20527;-77
2021/06/08 11:22:20;;;;;;;11.23;8.45;;;25.50;99.90;;;;;;5039709;28;20048;-79
2021/06/08 11:24:48;;;;;;;10.75;8.57;;;25.50;99.90;;;;;;5044137;28;20354;-78
2021/06/08 11:27:15;;;;;;;10.90;8.15;;;25.60;99.90;;;;;;5042678;28;20024;-80
2021/06/08 11:29:42;;;;;;;12.23;8.85;;;26.00;99.90;;;;;;5047266;28;20032;-80
2021/06/08 11:32:08;;;;;;;18.83;8.80;;;26.60;99.90;;;;;;5047427;28;20022;-77
2021/06/08 11:35:07;;;;;;;11.97;9.10;;;26.60;99.90;;;;;;5045850;28;20496;-79
2021/06/08 11:37:45;;;;;;;11.45;7.38;;;27.00;99.90;;;;;;5045946;28;20064;-78
2021/06/08 11:40:36;;;;;;;11.63;8.18;;;26.90;99.90;;;;;;5043160;28;20059;-79
2021/06/08 11:43:26;;;;;;;10.73;8.20;;;26.90;99.90;;;;;;5045390;28;20018;-78
2021/06/08 11:46:28;;;;;;;13.45;8.77;;;27.00;99.90;;;;;;5043254;28;20049;-80
2021/06/08 11:49:18;;;;;;;12.73;7.95;;;26.40;99.90;;;;;;5033990;28;20056;-77
2021/06/08 11:51:47;;;;;;;10.68;7.80;;;25.60;99.90;;;;;;5044633;28;20021;-78
2021/06/08 11:54:19;;;;;;;11.20;8.32;;;25.80;99.90;;;;;;5041795;28;20032;-76
2021/06/08 11:56:57;;;;;;;11.50;8.63;;;26.00;99.90;;;;;;5042568;28;20108;-78
2021/06/08 11:59:56;;;;;;;9.32;7.68;;;26.70;99.90;;;;;;5040005;28;20036;-78
2021/06/08 12:02:40;;;;;;;9.57;7.88;;;27.00;99.90;;;;;;5044434;28;20260;-78
2021/06/08 12:05:10;;;;;;;11.07;8.68;;;26.80;99.90;;;;;;5032816;28;20271;-77
2021/06/08 12:08:02;;;;;;;11.77;8.60;;;26.50;99.90;;;;;;5032748;28;20488;-77
2021/06/08 12:10:32;;;;;;;11.65;8.43;;;26.30;99.90;;;;;;5035116;28;20041;-77
2021/06/08 12:12:58;;;;;;;11.55;7.88;;;26.10;99.90;;;;;;5034054;28;20035;-79
2021/06/08 12:15:30;;;;;;;11.38;7.43;;;26.40;99.90;;;;;;5044304;28;20028;-87
2021/06/08 12:17:58;;;;;;;10.18;8.27;;;27.00;99.90;;;;;;5040948;28;20034;-80
2021/06/08 12:20:24;;;;;;;11.52;8.35;;;27.40;99.90;;;;;;5045331;28;20143;-81
2021/06/08 12:22:50;;;;;;;10.10;7.97;;;27.00;99.90;;;;;;5041253;28;20481;-80
2021/06/08 12:25:16;;;;;;;10.90;8.40;;;26.90;99.90;;;;;;5043793;28;20032;-79
2021/06/08 12:27:44;;;;;;;10.77;7.95;;;26.80;99.90;;;;;;5044454;28;20025;-81
2021/06/08 12:30:31;;;;;;;12.18;8.52;;;26.50;99.90;;;;;;5052569;28;20106;-78
2021/06/08 12:33:02;;;;;;;15.73;8.38;;;26.40;99.90;;;;;;5052363;28;20032;-77
2021/06/08 12:35:35;;;;;;;12.00;8.40;;;26.50;99.90;;;;;;5052097;28;20048;-79
2021/06/08 12:38:18;;;;;;;12.18;8.10;;;26.60;99.90;;;;;;5053011;28;20055;-78
2021/06/08 12:41:00;;;;;;;11.85;8.05;;;26.50;99.90;;;;;;5055894;28;21944;-79
2021/06/08 12:43:26;;;;;;;11.85;8.43;;;26.30;99.90;;;;;;5053319;28;20058;-79
2021/06/08 12:45:59;;;;;;;10.32;8.02;;;26.00;99.90;;;;;;5053189;28;20473;-78
2021/06/08 12:48:26;;;;;;;9.30;7.28;;;26.20;99.90;;;;;;5052706;28;20056;-80
2021/06/08 12:50:51;;;;;;;;;;;26.20;99.90;;;;;;5052815;28;20109;-78